Thaani — HBY4477 — position and weather

sailwx.info

Track history (hours):
 
Tides and Currents Weather Stations Pressure Air Temp Water Temp Dewpoint Dewpoint Depression Visibility Wind Speed Wind Dir Waves Ship Positions

Thaani

Last reported at 2015-Aug-11 04:33 UTC. Time now 2015-Aug-29 17:00 UTC.
Position N 33°31' W 011°28'.
Warning: this ship's position is 18 days out of date.

Length 14 m.

Type: Pleasure craft. MMSI: 269102970.

Date/timePositionNaut miles runAvg speedWind from/ knotsBaromVisibWave heightAir tempDewpointWater temp
2015-Aug-11 04:33N 33°31' W 011°28'7 6.9
2015-Aug-11 03:33N 33°32' W 011°20'7 6.6
2015-Aug-11 02:33N 33°33' W 011°12'7 5.8
2015-Aug-11 01:20N 33°34' W 011°04'5 4.8
2015-Aug-11 00:12N 33°35' W 010°57'10 5.8
2015-Aug-10 22:32N 33°37' W 010°46'6 5.6
2015-Aug-10 21:32N 33°38' W 010°39'7 6.8
2015-Aug-10 20:31N 33°39' W 010°31'9 6.7
2015-Aug-10 19:07N 33°41' W 010°20'23 6.2
2015-Aug-10 15:23N 33°44' W 009°53'5 5.4
2015-Aug-10 14:28N 33°45' W 009°47'5 5.1
2015-Aug-10 13:29N 33°46' W 009°41'94 4.9
2015-Aug-09 18:25N 33°55' W 007°48'  
Track history (hours):
 
Tides and Currents Weather Stations Pressure Air Temp Water Temp Dewpoint Dewpoint Depression Visibility Wind Speed Wind Dir Waves Ship Positions

Thaani

Last reported at 2015-Aug-11 04:33 UTC. Time now 2015-Aug-29 17:00 UTC.
Position N 33°31' W 011°28'.
Warning: this ship's position is 18 days out of date.

Length 14 m.

Type: Pleasure craft. MMSI: 269102970.

Date/timePositionNaut miles runAvg speedWind from/ knotsBaromVisibWave heightAir tempDewpointWater temp
2015-Aug-11 04:33N 33°31' W 011°28'7 6.9
2015-Aug-11 03:33N 33°32' W 011°20'7 6.6
2015-Aug-11 02:33N 33°33' W 011°12'7 5.8
2015-Aug-11 01:20N 33°34' W 011°04'5 4.8
2015-Aug-11 00:12N 33°35' W 010°57'10 5.8
2015-Aug-10 22:32N 33°37' W 010°46'6 5.6
2015-Aug-10 21:32N 33°38' W 010°39'7 6.8
2015-Aug-10 20:31N 33°39' W 010°31'9 6.7
2015-Aug-10 19:07N 33°41' W 010°20'23 6.2
2015-Aug-10 15:23N 33°44' W 009°53'5 5.4
2015-Aug-10 14:28N 33°45' W 009°47'5 5.1
2015-Aug-10 13:29N 33°46' W 009°41'94 4.9
2015-Aug-09 18:25N 33°55' W 007°48'  

Dump ship's entire track history